Time;durP1;ratioP1;P1;durP2;ratioP2;P2;SDS_P1;SDS_P2;PMS_P1;PMS_P2;Temp;Humidity;BMP_temperature;BMP_pressure;BME280_temperature;BME280_humidity;BME280_pressure;Samples;Min_cycle;Max_cycle;Signal;HPM_P1;HPM_P2
2023/08/24 00:00:42;;;;;;;10.13;7.32;;;;;;;;;;5012337;28;20485;-82
2023/08/24 00:03:09;;;;;;;7.93;7.18;;;;;;;;;;5011985;28;20053;-83
2023/08/24 00:05:38;;;;;;;8.32;7.38;;;;;;;;;;5011412;28;20149;-83
2023/08/24 00:08:05;;;;;;;9.02;7.95;;;;;;;;;;5011575;28;20042;-83
2023/08/24 00:10:31;;;;;;;8.65;7.53;;;;;;;;;;5011496;28;20536;-82
2023/08/24 00:13:00;;;;;;;8.15;7.35;;;;;;;;;;5010633;28;20049;-84
2023/08/24 00:15:27;;;;;;;9.88;8.13;;;;;;;;;;5011599;28;20137;-83
2023/08/24 00:17:53;;;;;;;9.98;7.15;;;;;;;;;;5011551;28;20049;-83
2023/08/24 00:20:20;;;;;;;8.77;7.57;;;;;;;;;;5010897;28;20048;-83
2023/08/24 00:22:47;;;;;;;8.32;7.45;;;;;;;;;;5011622;28;20056;-83
2023/08/24 00:25:14;;;;;;;8.55;7.57;;;;;;;;;;5011513;28;20046;-82
2023/08/24 00:27:41;;;;;;;8.40;7.57;;;;;;;;;;5011487;28;20046;-83
2023/08/24 00:30:12;;;;;;;8.57;7.30;;;;;;;;;;5011007;28;20413;-83
2023/08/24 00:32:39;;;;;;;7.43;6.63;;;;;;;;;;5011151;28;20049;-83
2023/08/24 00:35:07;;;;;;;9.85;6.95;;;;;;;;;;5010916;28;20041;-83
2023/08/24 00:37:34;;;;;;;7.55;6.60;;;;;;;;;;5012227;28;20042;-82
2023/08/24 00:40:03;;;;;;;7.65;6.95;;;;;;;;;;5007679;28;20047;-82
2023/08/24 00:42:29;;;;;;;7.80;6.97;;;;;;;;;;5011954;28;20046;-83
2023/08/24 00:44:56;;;;;;;7.68;6.70;;;;;;;;;;5011821;28;20068;-82
2023/08/24 00:47:24;;;;;;;7.65;6.85;;;;;;;;;;5012586;28;20442;-82
2023/08/24 00:49:51;;;;;;;7.90;6.93;;;;;;;;;;5012729;28;20124;-83
2023/08/24 00:52:19;;;;;;;9.10;7.10;;;;;;;;;;5013296;28;20069;-82
2023/08/24 00:54:46;;;;;;;7.22;6.63;;;;;;;;;;5013500;28;20046;-82
2023/08/24 00:57:13;;;;;;;8.38;6.65;;;;;;;;;;5014105;28;20049;-81
2023/08/24 00:59:40;;;;;;;7.93;6.80;;;;;;;;;;5013101;28;20046;-82
2023/08/24 01:02:07;;;;;;;7.35;6.65;;;;;;;;;;5013619;28;20056;-83
2023/08/24 01:04:37;;;;;;;7.65;6.85;;;;;;;;;;5011592;28;20476;-82
2023/08/24 01:07:04;;;;;;;8.43;6.80;;;;;;;;;;5013348;28;20131;-82
2023/08/24 01:09:31;;;;;;;9.85;6.80;;;;;;;;;;5014537;28;20058;-83
2023/08/24 01:12:02;;;;;;;10.27;7.28;;;;;;;;;;5029343;28;20060;-82
2023/08/24 01:14:41;;;;;;;7.70;7.00;;;;;;;;;;5029130;28;20049;-82
2023/08/24 01:17:11;;;;;;;7.68;6.88;;;;;;;;;;5027140;28;20038;-82
2023/08/24 01:19:42;;;;;;;;;;;;;;;;;;5009438;28;20054;-82
2023/08/24 01:22:21;;;;;;;8.18;6.53;;;;;;;;;;5012475;28;19934;-82
2023/08/24 01:24:54;;;;;;;8.50;7.37;;;;;;;;;;5011241;28;20056;-82
2023/08/24 01:27:23;;;;;;;8.48;6.82;;;;;;;;;;5009066;28;20052;-83
2023/08/24 01:29:52;;;;;;;9.05;7.50;;;;;;;;;;5011036;28;20053;-82
2023/08/24 01:32:19;;;;;;;8.38;7.57;;;;;;;;;;5010585;28;20078;-83
2023/08/24 01:34:45;;;;;;;8.23;7.40;;;;;;;;;;5010485;28;20053;-83
2023/08/24 01:37:12;;;;;;;8.60;7.70;;;;;;;;;;5009211;28;20050;-82
2023/08/24 01:39:44;;;;;;;8.10;6.97;;;;;;;;;;5013840;28;20069;-83
2023/08/24 01:42:17;;;;;;;8.27;7.47;;;;;;;;;;5026569;28;20525;-82
2023/08/24 01:44:49;;;;;;;10.23;7.70;;;;;;;;;;5017788;28;20136;-82
2023/08/24 01:47:17;;;;;;;8.55;7.75;;;;;;;;;;5010396;28;20058;-83
2023/08/24 01:49:44;;;;;;;8.93;7.70;;;;;;;;;;5007496;28;20635;-83
2023/08/24 01:52:11;;;;;;;9.65;7.97;;;;;;;;;;5010773;28;20077;-83
2023/08/24 01:54:38;;;;;;;9.65;8.10;;;;;;;;;;5009953;28;20054;-82
2023/08/24 01:57:06;;;;;;;10.20;8.38;;;;;;;;;;5011073;28;20177;-82
2023/08/24 01:59:33;;;;;;;8.55;7.60;;;;;;;;;;5020174;28;20125;-83
2023/08/24 02:02:01;;;;;;;9.82;7.72;;;;;;;;;;5009332;28;20050;-82
2023/08/24 02:04:28;;;;;;;8.98;7.80;;;;;;;;;;5009358;28;20054;-83
2023/08/24 02:06:54;;;;;;;9.73;8.00;;;;;;;;;;5010180;28;20065;-83
2023/08/24 02:09:21;;;;;;;9.20;7.97;;;;;;;;;;5009221;28;20037;-83
2023/08/24 02:11:48;;;;;;;9.10;8.23;;;;;;;;;;5009763;28;20120;-82
2023/08/24 02:14:14;;;;;;;9.18;8.27;;;;;;;;;;5009759;28;20120;-82
2023/08/24 02:16:41;;;;;;;9.70;7.68;;;;;;;;;;5009869;28;20072;-82
2023/08/24 02:19:09;;;;;;;8.18;7.38;;;;;;;;;;5009070;28;20137;-83
2023/08/24 02:21:36;;;;;;;9.00;8.07;;;;;;;;;;5008004;28;20080;-83
2023/08/24 02:24:03;;;;;;;9.43;8.13;;;;;;;;;;5009542;28;20081;-83
2023/08/24 02:26:30;;;;;;;9.48;8.27;;;;;;;;;;5009953;28;20053;-83
2023/08/24 02:28:58;;;;;;;9.07;8.18;;;;;;;;;;5008942;28;20083;-82
2023/08/24 02:31:23;;;;;;;8.80;7.80;;;;;;;;;;5008690;28;20068;-82
2023/08/24 02:33:50;;;;;;;8.43;7.47;;;;;;;;;;5009058;28;20041;-82
2023/08/24 02:36:18;;;;;;;9.85;8.25;;;;;;;;;;5009413;28;20045;-82
2023/08/24 02:38:44;;;;;;;8.93;8.00;;;;;;;;;;5008211;28;20080;-83
2023/08/24 02:41:12;;;;;;;9.32;8.43;;;;;;;;;;5008937;28;20497;-82
2023/08/24 02:43:38;;;;;;;9.25;7.70;;;;;;;;;;5008592;28;20054;-83
2023/08/24 02:46:07;;;;;;;9.55;8.25;;;;;;;;;;5009578;28;20050;-83
2023/08/24 02:48:34;;;;;;;8.77;7.82;;;;;;;;;;5006944;28;20046;-82
2023/08/24 02:51:03;;;;;;;9.02;8.13;;;;;;;;;;5006103;28;20042;-83
2023/08/24 02:53:31;;;;;;;9.30;7.85;;;;;;;;;;5008488;28;20050;-83
2023/08/24 02:55:58;;;;;;;10.15;8.75;;;;;;;;;;5009292;28;20050;-83
2023/08/24 02:58:25;;;;;;;10.63;8.02;;;;;;;;;;5008480;28;20046;-83
2023/08/24 03:00:52;;;;;;;9.00;8.18;;;;;;;;;;5008666;28;20061;-83
2023/08/24 03:03:19;;;;;;;9.45;8.35;;;;;;;;;;5008047;28;20056;-83
2023/08/24 03:05:56;;;;;;;8.82;7.90;;;;;;;;;;5008985;28;20054;-83
2023/08/24 03:08:23;;;;;;;9.13;8.23;;;;;;;;;;5008940;28;20046;-82
2023/08/24 03:10:51;;;;;;;8.85;7.95;;;;;;;;;;5008147;28;20042;-82
2023/08/24 03:13:18;;;;;;;10.02;9.07;;;;;;;;;;5008818;28;20152;-82
2023/08/24 03:15:44;;;;;;;10.15;9.15;;;;;;;;;;5009192;28;20050;-83
2023/08/24 03:18:12;;;;;;;9.20;8.30;;;;;;;;;;5007847;28;20056;-82
2023/08/24 03:20:39;;;;;;;9.55;8.65;;;;;;;;;;5006322;28;20042;-82
2023/08/24 03:23:06;;;;;;;11.45;9.07;;;;;;;;;;5010476;28;20426;-83
2023/08/24 03:25:36;;;;;;;10.60;8.82;;;;;;;;;;5012520;28;20052;-83
2023/08/24 03:28:06;;;;;;;10.13;8.90;;;;;;;;;;5012700;28;20386;-83
2023/08/24 03:30:35;;;;;;;9.85;8.73;;;;;;;;;;5012654;28;20139;-83
2023/08/24 03:33:02;;;;;;;9.95;9.05;;;;;;;;;;5009392;28;20053;-83
2023/08/24 03:35:29;;;;;;;9.75;8.75;;;;;;;;;;5012896;28;20053;-83
2023/08/24 03:37:56;;;;;;;10.52;9.00;;;;;;;;;;5012244;28;20057;-82
2023/08/24 03:40:23;;;;;;;8.40;7.60;;;;;;;;;;5010738;28;20081;-83
2023/08/24 03:42:49;;;;;;;9.45;8.43;;;;;;;;;;5007937;28;20523;-83
2023/08/24 03:45:16;;;;;;;9.88;8.88;;;;;;;;;;5012010;28;20133;-82
2023/08/24 03:47:43;;;;;;;10.57;8.02;;;;;;;;;;5012416;28;20089;-82
2023/08/24 03:50:10;;;;;;;8.95;8.05;;;;;;;;;;5012146;28;20049;-84
2023/08/24 03:52:36;;;;;;;10.00;9.10;;;;;;;;;;5011383;28;20100;-82
2023/08/24 03:55:04;;;;;;;10.75;9.48;;;;;;;;;;5012870;28;20052;-82
2023/08/24 03:57:31;;;;;;;9.13;8.23;;;;;;;;;;5013543;28;20453;-83
2023/08/24 03:59:58;;;;;;;11.75;9.32;;;;;;;;;;5011846;28;20574;-83
2023/08/24 04:02:26;;;;;;;9.80;8.75;;;;;;;;;;5010687;28;20497;-83
2023/08/24 04:04:53;;;;;;;9.63;8.70;;;;;;;;;;5010864;28;20049;-83
2023/08/24 04:07:20;;;;;;;9.48;8.40;;;;;;;;;;5013238;28;20060;-82
2023/08/24 04:09:46;;;;;;;11.23;9.02;;;;;;;;;;5012625;28;20459;-82
2023/08/24 04:12:13;;;;;;;11.43;8.80;;;;;;;;;;5012624;28;20401;-83
2023/08/24 04:14:39;;;;;;;10.23;8.90;;;;;;;;;;5011054;28;20050;-82
2023/08/24 04:17:06;;;;;;;9.55;8.63;;;;;;;;;;5012183;28;20137;-82
2023/08/24 04:19:34;;;;;;;9.50;8.50;;;;;;;;;;5012461;28;20057;-82
2023/08/24 04:22:00;;;;;;;11.27;8.70;;;;;;;;;;5012934;28;20424;-82
2023/08/24 04:24:27;;;;;;;9.82;8.75;;;;;;;;;;5010896;28;20048;-83
2023/08/24 04:26:54;;;;;;;10.38;9.15;;;;;;;;;;5010366;28;20073;-82
2023/08/24 04:29:21;;;;;;;10.55;8.98;;;;;;;;;;5012075;28;20045;-83
2023/08/24 04:31:48;;;;;;;10.27;9.00;;;;;;;;;;5011291;28;20045;-83
2023/08/24 04:34:15;;;;;;;9.80;8.57;;;;;;;;;;5015694;28;20050;-82
2023/08/24 04:36:44;;;;;;;9.75;8.48;;;;;;;;;;5021740;28;20129;-83
2023/08/24 04:39:11;;;;;;;10.13;9.13;;;;;;;;;;5011758;28;20428;-83
2023/08/24 04:41:37;;;;;;;9.80;8.80;;;;;;;;;;5012144;28;20042;-83
2023/08/24 04:44:04;;;;;;;11.68;9.68;;;;;;;;;;5011208;28;20504;-83
2023/08/24 04:46:31;;;;;;;10.48;9.43;;;;;;;;;;5010956;28;20078;-83
2023/08/24 04:48:58;;;;;;;10.73;9.63;;;;;;;;;;5012175;28;20482;-83
2023/08/24 04:51:24;;;;;;;11.15;8.90;;;;;;;;;;5011640;28;20050;-83
2023/08/24 04:53:52;;;;;;;11.85;9.45;;;;;;;;;;5011776;28;20042;-83
2023/08/24 04:56:19;;;;;;;10.65;9.50;;;;;;;;;;5011381;28;20050;-84
2023/08/24 04:58:54;;;;;;;10.23;9.20;;;;;;;;;;5012438;28;20054;-84
2023/08/24 05:01:21;;;;;;;11.60;9.88;;;;;;;;;;5025856;28;20117;-82
2023/08/24 05:03:48;;;;;;;11.27;9.57;;;;;;;;;;5031819;28;20142;-83
2023/08/24 05:06:14;;;;;;;11.05;9.70;;;;;;;;;;5024699;28;20056;-83
2023/08/24 05:08:41;;;;;;;11.07;9.48;;;;;;;;;;5016551;28;20069;-82
2023/08/24 05:11:14;;;;;;;12.07;9.40;;;;;;;;;;5015768;28;20054;-82
2023/08/24 05:13:41;;;;;;;10.85;9.65;;;;;;;;;;5029176;28;20097;-83
2023/08/24 05:16:08;;;;;;;9.70;8.77;;;;;;;;;;5028473;28;20046;-82
2023/08/24 05:18:36;;;;;;;12.00;9.63;;;;;;;;;;5020608;28;20096;-83
2023/08/24 05:21:04;;;;;;;11.57;9.90;;;;;;;;;;5012834;28;20049;-82
2023/08/24 05:23:31;;;;;;;13.95;9.60;;;;;;;;;;5020090;28;20484;-83
2023/08/24 05:25:57;;;;;;;13.20;9.10;;;;;;;;;;5010766;28;20050;-82
2023/08/24 05:28:26;;;;;;;10.85;9.30;;;;;;;;;;5008904;28;20081;-82
2023/08/24 05:30:52;;;;;;;12.50;9.48;;;;;;;;;;5014592;28;20042;-83
2023/08/24 05:33:20;;;;;;;12.85;9.73;;;;;;;;;;5012667;28;20050;-83
2023/08/24 05:35:47;;;;;;;9.90;8.32;;;;;;;;;;5013655;28;20054;-83
2023/08/24 05:38:13;;;;;;;10.32;9.10;;;;;;;;;;5008702;28;20061;-83
2023/08/24 05:40:42;;;;;;;9.80;8.57;;;;;;;;;;5011106;28;20057;-83
2023/08/24 05:43:09;;;;;;;10.85;9.55;;;;;;;;;;5007564;28;20504;-83
2023/08/24 05:45:39;;;;;;;10.88;9.77;;;;;;;;;;5010452;28;20128;-83
2023/08/24 05:48:07;;;;;;;11.45;9.48;;;;;;;;;;5010594;28;20073;-83
2023/08/24 05:50:34;;;;;;;10.77;9.75;;;;;;;;;;5008280;28;20049;-83
2023/08/24 05:53:00;;;;;;;9.98;8.90;;;;;;;;;;5011827;28;20405;-83
2023/08/24 05:55:27;;;;;;;10.73;9.57;;;;;;;;;;5013125;28;20061;-82
2023/08/24 05:57:54;;;;;;;12.13;9.10;;;;;;;;;;5014665;28;20129;-83
2023/08/24 06:00:22;;;;;;;11.57;10.05;;;;;;;;;;5014568;28;20049;-82
2023/08/24 06:02:51;;;;;;;11.13;9.93;;;;;;;;;;5013371;28;20074;-83
2023/08/24 06:05:18;;;;;;;10.77;9.68;;;;;;;;;;5013713;28;20108;-83
2023/08/24 06:07:46;;;;;;;11.05;10.00;;;;;;;;;;5015800;28;20064;-83
2023/08/24 06:10:13;;;;;;;11.32;10.27;;;;;;;;;;5015932;28;20038;-83
2023/08/24 06:12:39;;;;;;;12.15;10.82;;;;;;;;;;5016966;28;20046;-83
2023/08/24 06:15:09;;;;;;;11.38;10.27;;;;;;;;;;5010723;28;20046;-82
2023/08/24 06:17:36;;;;;;;12.13;10.15;;;;;;;;;;5006115;28;20046;-83
2023/08/24 06:20:04;;;;;;;12.25;9.88;;;;;;;;;;5012229;28;20050;-81
2023/08/24 06:22:31;;;;;;;13.68;11.15;;;;;;;;;;5016056;28;20054;-83
2023/08/24 06:25:00;;;;;;;11.25;9.88;;;;;;;;;;5015325;28;20136;-82
2023/08/24 06:27:26;;;;;;;11.73;10.23;;;;;;;;;;5016005;28;20081;-84
2023/08/24 06:29:53;;;;;;;11.82;9.68;;;;;;;;;;5008737;28;20045;-83
2023/08/24 06:32:39;;;;;;;;;;;;;;;;;;;;;
2023/08/24 06:35:19;;;;;;;10.98;9.90;;;;;;;;;;5007135;28;20064;-83
2023/08/24 06:37:46;;;;;;;11.38;9.55;;;;;;;;;;5012159;28;20463;-83
2023/08/24 06:40:17;;;;;;;10.80;9.70;;;;;;;;;;5012181;28;20053;-82
2023/08/24 06:42:46;;;;;;;10.75;9.52;;;;;;;;;;5013025;28;20057;-84
2023/08/24 06:45:17;;;;;;;11.20;9.70;;;;;;;;;;5010332;28;20042;-84
2023/08/24 06:47:45;;;;;;;11.07;9.38;;;;;;;;;;5015052;28;20608;-83
2023/08/24 06:50:13;;;;;;;13.40;9.88;;;;;;;;;;5016199;28;20049;-83
2023/08/24 06:52:40;;;;;;;11.48;10.02;;;;;;;;;;5014105;28;20042;-81
2023/08/24 06:55:09;;;;;;;11.05;9.45;;;;;;;;;;5011877;28;20431;-83
2023/08/24 06:57:35;;;;;;;11.63;9.25;;;;;;;;;;5006223;28;20054;-83
2023/08/24 07:00:06;;;;;;;10.48;9.18;;;;;;;;;;5004069;28;20057;-83
2023/08/24 07:02:33;;;;;;;10.40;9.30;;;;;;;;;;5006858;28;20053;-82
2023/08/24 07:05:00;;;;;;;10.55;9.30;;;;;;;;;;5010546;28;20243;-83
2023/08/24 07:07:28;;;;;;;11.52;9.55;;;;;;;;;;5011615;28;20065;-82
2023/08/24 07:09:55;;;;;;;10.63;8.88;;;;;;;;;;5013126;28;20084;-82
2023/08/24 07:12:22;;;;;;;11.23;9.18;;;;;;;;;;5011228;28;20054;-82
2023/08/24 07:14:48;;;;;;;10.38;9.38;;;;;;;;;;5009091;28;20042;-83
2023/08/24 07:17:15;;;;;;;11.02;8.80;;;;;;;;;;5010216;28;20052;-82
2023/08/24 07:19:41;;;;;;;12.30;9.50;;;;;;;;;;5007061;28;20046;-83
2023/08/24 07:22:08;;;;;;;9.90;8.90;;;;;;;;;;5011247;28;20049;-82
2023/08/24 07:24:36;;;;;;;11.43;9.48;;;;;;;;;;5011958;28;20069;-82
2023/08/24 07:27:03;;;;;;;10.77;8.90;;;;;;;;;;5011340;28;20052;-82
2023/08/24 07:29:30;;;;;;;10.18;9.25;;;;;;;;;;5011246;28;20038;-84
2023/08/24 07:31:56;;;;;;;12.82;9.88;;;;;;;;;;5013854;28;20042;-83
2023/08/24 07:34:23;;;;;;;10.07;9.18;;;;;;;;;;5017100;28;20045;-82
2023/08/24 07:36:51;;;;;;;10.25;9.02;;;;;;;;;;5019684;28;20124;-83
2023/08/24 07:39:17;;;;;;;9.63;8.73;;;;;;;;;;5009124;28;20061;-83
2023/08/24 07:41:46;;;;;;;9.77;8.88;;;;;;;;;;5012238;28;20045;-84
2023/08/24 07:44:12;;;;;;;10.27;9.25;;;;;;;;;;5016523;28;20030;-84
2023/08/24 07:46:39;;;;;;;10.90;9.23;;;;;;;;;;5008712;28;20070;-86
2023/08/24 07:49:09;;;;;;;10.98;9.15;;;;;;;;;;5013277;28;20473;-88
2023/08/24 07:51:36;;;;;;;10.13;9.13;;;;;;;;;;5014372;28;20038;-83
2023/08/24 07:54:04;;;;;;;10.07;9.13;;;;;;;;;;5015657;28;20057;-83
2023/08/24 07:56:31;;;;;;;11.52;9.50;;;;;;;;;;5013744;28;20045;-83
2023/08/24 07:58:59;;;;;;;10.45;9.27;;;;;;;;;;5011752;28;20076;-83
2023/08/24 08:01:25;;;;;;;9.90;8.90;;;;;;;;;;5014911;28;20132;-83
2023/08/24 08:03:52;;;;;;;10.10;9.05;;;;;;;;;;5013657;28;20042;-83
2023/08/24 08:06:18;;;;;;;9.82;8.75;;;;;;;;;;5012208;28;20133;-84
2023/08/24 08:08:46;;;;;;;11.40;9.70;;;;;;;;;;5014584;28;20076;-84
2023/08/24 08:11:13;;;;;;;12.70;9.15;;;;;;;;;;5015547;28;20088;-84
2023/08/24 08:13:39;;;;;;;13.00;9.13;;;;;;;;;;5011668;28;20053;-84
2023/08/24 08:16:08;;;;;;;10.60;9.45;;;;;;;;;;5015794;28;20571;-84
2023/08/24 08:18:36;;;;;;;10.40;9.35;;;;;;;;;;5014861;28;20050;-84
2023/08/24 08:21:09;;;;;;;10.23;9.20;;;;;;;;;;5013341;28;20054;-84
2023/08/24 08:23:35;;;;;;;10.50;9.45;;;;;;;;;;5012499;28;20117;-84
2023/08/24 08:26:02;;;;;;;14.02;9.60;;;;;;;;;;5011938;28;20053;-83
2023/08/24 08:28:29;;;;;;;14.68;9.77;;;;;;;;;;5018807;28;20417;-87
2023/08/24 08:30:56;;;;;;;11.73;9.35;;;;;;;;;;5013881;28;20072;-84
2023/08/24 08:33:35;;;;;;;10.50;9.43;;;;;;;;;;5022200;28;20038;-88
2023/08/24 08:36:37;;;;;;;11.93;10.00;;;;;;;;;;5029313;28;20042;-86
2023/08/24 08:39:29;;;;;;;10.77;9.50;;;;;;;;;;5029231;28;20090;-84
2023/08/24 08:41:56;;;;;;;11.82;9.82;;;;;;;;;;5015588;28;20045;-83
2023/08/24 08:44:24;;;;;;;12.25;9.77;;;;;;;;;;5014704;28;20053;-80
2023/08/24 08:46:50;;;;;;;10.18;8.88;;;;;;;;;;5017105;28;20046;-81
2023/08/24 08:49:20;;;;;;;10.25;8.75;;;;;;;;;;5017235;28;20128;-82
2023/08/24 08:51:48;;;;;;;10.82;9.55;;;;;;;;;;5014122;28;20061;-80
2023/08/24 08:54:14;;;;;;;10.23;9.13;;;;;;;;;;5017477;28;20046;-80
2023/08/24 08:56:41;;;;;;;11.73;9.75;;;;;;;;;;5017228;28;20041;-80
2023/08/24 08:59:09;;;;;;;11.00;9.82;;;;;;;;;;5018524;28;20073;-80
2023/08/24 09:01:38;;;;;;;12.25;9.15;;;;;;;;;;5017154;28;20550;-80
2023/08/24 09:04:07;;;;;;;12.95;9.82;;;;;;;;;;5015105;28;20068;-80
2023/08/24 09:06:35;;;;;;;10.82;9.73;;;;;;;;;;5018463;28;20048;-79
2023/08/24 09:09:01;;;;;;;11.07;9.57;;;;;;;;;;5021839;28;20061;-79
2023/08/24 09:11:28;;;;;;;10.25;9.25;;;;;;;;;;5023579;28;20053;-79
2023/08/24 09:13:55;;;;;;;10.88;9.80;;;;;;;;;;5019981;28;20056;-80
2023/08/24 09:16:21;;;;;;;10.23;9.30;;;;;;;;;;5019647;28;20053;-81
2023/08/24 09:18:48;;;;;;;11.25;10.15;;;;;;;;;;5018434;28;20042;-83
2023/08/24 09:25:01;;;;;;;;;;;;;;;;;;;;;
2023/08/24 09:28:24;;;;;;;11.02;9.93;;;;;;;;;;4878722;29;20109;-84
2023/08/24 09:31:02;;;;;;;11.52;9.38;;;;;;;;;;4842215;29;20049;-80
2023/08/24 09:33:30;;;;;;;10.75;9.60;;;;;;;;;;4935475;28;20051;-80
2023/08/24 09:36:01;;;;;;;13.20;9.57;;;;;;;;;;5008147;28;20049;-79
2023/08/24 09:38:28;;;;;;;10.73;9.63;;;;;;;;;;5025068;28;20080;-79
2023/08/24 09:40:56;;;;;;;9.60;8.60;;;;;;;;;;5023022;28;20038;-79
2023/08/24 09:43:24;;;;;;;9.95;8.90;;;;;;;;;;5029174;28;20151;-79
2023/08/24 09:45:51;;;;;;;10.40;9.40;;;;;;;;;;5027328;28;20072;-78
2023/08/24 09:48:20;;;;;;;10.48;9.40;;;;;;;;;;5031806;28;20034;-78
2023/08/24 09:50:47;;;;;;;10.35;9.40;;;;;;;;;;5028704;28;20042;-78
2023/08/24 09:53:17;;;;;;;11.68;9.25;;;;;;;;;;5023120;28;20076;-78
2023/08/24 09:55:49;;;;;;;11.93;9.57;;;;;;;;;;5030542;28;20034;-81
2023/08/24 09:58:16;;;;;;;12.73;10.02;;;;;;;;;;5030346;28;20073;-81
2023/08/24 10:00:47;;;;;;;9.85;8.85;;;;;;;;;;5021017;28;20081;-81
2023/08/24 10:03:18;;;;;;;10.82;8.85;;;;;;;;;;5017234;28;20042;-80
2023/08/24 10:05:48;;;;;;;12.05;9.38;;;;;;;;;;5013981;28;20468;-81
2023/08/24 10:08:17;;;;;;;10.18;8.80;;;;;;;;;;5013370;28;20072;-81
2023/08/24 10:10:44;;;;;;;11.13;9.40;;;;;;;;;;5015637;28;20041;-80
2023/08/24 10:13:18;;;;;;;12.48;9.45;;;;;;;;;;5016160;28;20291;-78
2023/08/24 10:15:46;;;;;;;10.60;9.32;;;;;;;;;;5011325;28;20524;-84
2023/08/24 10:18:14;;;;;;;10.25;9.25;;;;;;;;;;5011007;28;20069;-83
2023/08/24 10:20:42;;;;;;;11.30;9.40;;;;;;;;;;5022831;28;20110;-82
2023/08/24 10:23:11;;;;;;;9.88;8.63;;;;;;;;;;5009847;28;20042;-83
2023/08/24 10:25:39;;;;;;;9.77;8.75;;;;;;;;;;5007307;28;20416;-83
2023/08/24 10:28:07;;;;;;;11.23;9.60;;;;;;;;;;5010568;28;20046;-83
2023/08/24 10:30:36;;;;;;;11.07;9.43;;;;;;;;;;5010446;28;20472;-82
2023/08/24 10:33:03;;;;;;;10.02;8.93;;;;;;;;;;5011343;28;20049;-83
2023/08/24 10:35:30;;;;;;;10.57;8.50;;;;;;;;;;5012349;28;20432;-84
2023/08/24 10:37:59;;;;;;;11.07;8.70;;;;;;;;;;5012519;28;20058;-84
2023/08/24 10:40:34;;;;;;;9.40;8.48;;;;;;;;;;5012798;28;20563;-84
2023/08/24 10:43:04;;;;;;;9.65;7.80;;;;;;;;;;5010629;28;20064;-84
2023/08/24 10:45:56;;;;;;;9.75;8.75;;;;;;;;;;5011950;28;20072;-83
2023/08/24 10:48:23;;;;;;;10.07;9.02;;;;;;;;;;5009785;28;20096;-84
2023/08/24 10:51:19;;;;;;;10.02;9.00;;;;;;;;;;5013820;28;20052;-84
2023/08/24 10:53:47;;;;;;;10.25;8.43;;;;;;;;;;5011747;28;20049;-83
2023/08/24 10:56:16;;;;;;;9.73;8.48;;;;;;;;;;5013509;28;20088;-83
2023/08/24 10:58:43;;;;;;;10.52;8.93;;;;;;;;;;5012348;28;20050;-83
2023/08/24 11:01:15;;;;;;;11.40;8.82;;;;;;;;;;5011322;28;20405;-83
2023/08/24 11:04:02;;;;;;;9.68;7.88;;;;;;;;;;5007300;28;20029;-87
2023/08/24 11:10:49;;;;;;;27.67;17.42;;;;;;;;;;4965387;28;20051;-87
2023/08/24 11:14:09;;;;;;;13.75;10.65;;;;;;;;;;4962524;28;20095;-85
2023/08/24 11:24:28;;;;;;;14.75;8.05;;;;;;;;;;4999211;28;20568;-84
2023/08/24 11:34:31;;;;;;;9.63;7.72;;;;;;;;;;4984526;28;20501;-84
2023/08/24 11:37:48;;;;;;;8.30;7.30;;;;;;;;;;4994373;28;20070;-84
2023/08/24 11:47:44;;;;;;;9.00;6.80;;;;;;;;;;5002454;28;20103;-84
2023/08/24 11:50:29;;;;;;;9.50;7.32;;;;;;;;;;4974191;28;20344;-84
2023/08/24 11:53:11;;;;;;;10.63;6.95;;;;;;;;;;5014324;28;20440;-84
2023/08/24 11:56:18;;;;;;;9.15;7.18;;;;;;;;;;5015484;28;20096;-84
2023/08/24 12:05:51;;;;;;;13.02;6.70;;;;;;;;;;4973101;28;20058;-83
2023/08/24 12:16:12;;;;;;;12.07;7.07;;;;;;;;;;4918567;28;20051;-84
2023/08/24 12:22:55;;;;;;;8.48;6.95;;;;;;;;;;4892888;29;20495;-84
2023/08/24 12:26:20;;;;;;;9.05;6.45;;;;;;;;;;4829028;29;20152;-84
2023/08/24 12:53:11;;;;;;;9.23;6.25;;;;;;;;;;4932500;29;19933;-84
2023/08/24 13:00:06;;;;;;;9.95;6.47;;;;;;;;;;4956290;28;20070;-85
2023/08/24 13:06:08;;;;;;;12.38;6.35;;;;;;;;;;4947152;28;20051;-85
2023/08/24 13:12:49;;;;;;;9.40;6.18;;;;;;;;;;4997015;28;20054;-84
2023/08/24 13:22:07;;;;;;;9.32;5.93;;;;;;;;;;4914762;29;20067;-84
2023/08/24 13:25:05;;;;;;;;;;;;;;;;;;;;;
2023/08/24 13:27:47;;;;;;;8.70;5.97;;;;;;;;;;5013049;28;20042;-84
2023/08/24 13:30:34;;;;;;;13.25;6.10;;;;;;;;;;5014078;28;20049;-84
2023/08/24 13:33:07;;;;;;;9.02;6.22;;;;;;;;;;5022806;28;20089;-84
2023/08/24 13:35:54;;;;;;;11.63;6.05;;;;;;;;;;5023204;28;20054;-84
2023/08/24 13:38:32;;;;;;;9.27;5.50;;;;;;;;;;5017309;28;20690;-84
2023/08/24 13:41:34;;;;;;;8.48;5.80;;;;;;;;;;5015007;28;20065;-84
2023/08/24 13:44:26;;;;;;;11.48;5.60;;;;;;;;;;5023560;28;20121;-84
2023/08/24 13:47:07;;;;;;;8.77;5.85;;;;;;;;;;5019610;28;20045;-84
2023/08/24 13:49:58;;;;;;;8.38;5.70;;;;;;;;;;5019273;28;20046;-84
2023/08/24 13:52:51;;;;;;;10.75;5.30;;;;;;;;;;5016654;28;20116;-84
2023/08/24 13:58:22;;;;;;;10.38;5.93;;;;;;;;;;5031144;28;20422;-84
2023/08/24 14:04:03;;;;;;;11.52;6.00;;;;;;;;;;5032660;28;20057;-84
2023/08/24 14:06:50;;;;;;;11.10;5.50;;;;;;;;;;5024397;28;20121;-84
2023/08/24 14:12:09;;;;;;;10.60;6.60;;;;;;;;;;5007240;28;20042;-84
2023/08/24 14:15:22;;;;;;;;;;;;;;;;;;;;;
2023/08/24 14:20:56;;;;;;;8.43;5.82;;;;;;;;;;5013929;28;20106;-84
2023/08/24 14:23:44;;;;;;;12.45;6.18;;;;;;;;;;5008363;28;20096;-84
2023/08/24 14:26:54;;;;;;;8.27;6.03;;;;;;;;;;5015426;28;20049;-84
2023/08/24 14:29:41;;;;;;;9.73;5.85;;;;;;;;;;4998801;28;20042;-85
2023/08/24 14:32:13;;;;;;;8.70;5.70;;;;;;;;;;5013456;28;20048;-85
2023/08/24 14:34:58;;;;;;;10.25;5.88;;;;;;;;;;5012963;28;20065;-85
2023/08/24 14:37:25;;;;;;;9.75;5.75;;;;;;;;;;5016144;28;20432;-84
2023/08/24 14:39:55;;;;;;;8.35;5.72;;;;;;;;;;5016509;28;20046;-84
2023/08/24 14:42:22;;;;;;;11.05;5.85;;;;;;;;;;5019422;28;20072;-85
2023/08/24 14:45:00;;;;;;;10.88;5.82;;;;;;;;;;5019550;28;20070;-84
2023/08/24 14:47:33;;;;;;;7.10;5.50;;;;;;;;;;5013812;28;20046;-84
2023/08/24 14:50:09;;;;;;;7.95;5.30;;;;;;;;;;5014561;28;20060;-84
2023/08/24 14:52:44;;;;;;;9.65;5.60;;;;;;;;;;5016866;28;20042;-84
2023/08/24 14:55:20;;;;;;;10.27;5.93;;;;;;;;;;5019022;28;20045;-84
2023/08/24 14:57:52;;;;;;;10.98;5.75;;;;;;;;;;5020184;28;20049;-83
2023/08/24 15:00:19;;;;;;;10.30;5.57;;;;;;;;;;5017860;28;20049;-84
2023/08/24 15:02:53;;;;;;;12.27;6.40;;;;;;;;;;5022655;28;20420;-84
2023/08/24 15:05:26;;;;;;;10.48;6.18;;;;;;;;;;5013809;28;20493;-85
2023/08/24 15:07:57;;;;;;;10.50;6.10;;;;;;;;;;5015629;28;20081;-84
2023/08/24 15:10:28;;;;;;;8.23;6.18;;;;;;;;;;5012370;28;20085;-84
2023/08/24 15:13:01;;;;;;;11.40;6.53;;;;;;;;;;5017146;28;20112;-84
2023/08/24 15:15:34;;;;;;;10.02;6.38;;;;;;;;;;5024699;28;20046;-83
2023/08/24 15:18:03;;;;;;;11.73;6.80;;;;;;;;;;5017033;28;20069;-83
2023/08/24 15:20:35;;;;;;;10.60;7.75;;;;;;;;;;5018648;28;20042;-84
2023/08/24 15:23:06;;;;;;;9.10;7.50;;;;;;;;;;5018909;28;20068;-83
2023/08/24 15:25:41;;;;;;;10.32;7.50;;;;;;;;;;5021208;28;20108;-84
2023/08/24 15:28:08;;;;;;;11.02;8.38;;;;;;;;;;5014891;28;20045;-83
2023/08/24 15:30:40;;;;;;;9.15;8.25;;;;;;;;;;5014460;28;20504;-83
2023/08/24 15:33:29;;;;;;;10.23;8.60;;;;;;;;;;5011987;28;20065;-84
2023/08/24 15:36:01;;;;;;;9.25;8.20;;;;;;;;;;5013062;28;20042;-83
2023/08/24 15:38:40;;;;;;;10.25;8.90;;;;;;;;;;5016123;28;20077;-84
2023/08/24 15:41:21;;;;;;;10.00;8.85;;;;;;;;;;5015080;28;20471;-84
2023/08/24 15:43:48;;;;;;;12.57;8.82;;;;;;;;;;5014244;28;20052;-84
2023/08/24 15:46:24;;;;;;;10.27;9.07;;;;;;;;;;5016026;28;20054;-84
2023/08/24 15:48:55;;;;;;;10.20;9.10;;;;;;;;;;5014722;28;20416;-84
2023/08/24 15:51:27;;;;;;;9.00;8.07;;;;;;;;;;5017381;28;20045;-84
2023/08/24 15:54:20;;;;;;;9.73;8.55;;;;;;;;;;5015499;28;20065;-84
2023/08/24 15:57:02;;;;;;;9.63;8.18;;;;;;;;;;5017508;28;20056;-84
2023/08/24 15:59:38;;;;;;;9.90;8.38;;;;;;;;;;5016147;28;20165;-83
2023/08/24 16:02:12;;;;;;;9.75;7.78;;;;;;;;;;5023661;28;20614;-84
2023/08/24 16:04:40;;;;;;;9.30;8.27;;;;;;;;;;5014201;28;20096;-84
2023/08/24 16:07:13;;;;;;;9.57;7.40;;;;;;;;;;5016257;28;20058;-83
2023/08/24 16:09:44;;;;;;;9.63;8.40;;;;;;;;;;5018779;28;20046;-84
2023/08/24 16:14:57;;;;;;;9.27;8.07;;;;;;;;;;5047985;22;20050;-81
2023/08/24 16:17:23;;;;;;;8.88;7.97;;;;;;;;;;5048386;28;20041;-80
2023/08/24 16:19:50;;;;;;;9.18;8.27;;;;;;;;;;5038947;28;20050;-84
2023/08/24 16:22:18;;;;;;;10.52;7.50;;;;;;;;;;5032507;28;20049;-81
2023/08/24 16:24:45;;;;;;;9.10;7.65;;;;;;;;;;5032873;28;20064;-81
2023/08/24 16:27:11;;;;;;;9.18;7.85;;;;;;;;;;5036360;28;20045;-80
2023/08/24 16:29:36;;;;;;;8.88;7.97;;;;;;;;;;5035465;28;20041;-82
2023/08/24 16:32:03;;;;;;;9.07;8.13;;;;;;;;;;5031769;28;20052;-84
2023/08/24 16:34:30;;;;;;;10.30;8.40;;;;;;;;;;5037362;28;20049;-83
2023/08/24 16:36:56;;;;;;;10.43;8.05;;;;;;;;;;5034625;28;20042;-84
2023/08/24 16:39:29;;;;;;;10.48;8.40;;;;;;;;;;5032377;28;20045;-84
2023/08/24 16:41:55;;;;;;;8.73;7.85;;;;;;;;;;5035270;28;20042;-83
2023/08/24 16:44:22;;;;;;;8.73;7.93;;;;;;;;;;5033950;28;20044;-83
2023/08/24 16:46:49;;;;;;;9.45;7.90;;;;;;;;;;5035007;28;20057;-81